Time;durP1;ratioP1;P1;durP2;ratioP2;P2;SDS_P1;SDS_P2;PMS_P1;PMS_P2;Temp;Humidity;BMP_temperature;BMP_pressure;BME280_temperature;BME280_humidity;BME280_pressure;Samples;Min_cycle;Max_cycle;Signal;HPM_P1;HPM_P2
2021/05/11 00:01:18;;;;;;;11.90;3.97;;;;;;;17.34;54.10;100098.56;5000296;28;20111;-71
2021/05/11 00:03:44;;;;;;;8.23;4.40;;;;;;;17.24;53.99;100095.00;5034146;28;20033;-70
2021/05/11 00:06:10;;;;;;;10.98;4.95;;;;;;;17.36;53.79;100100.13;5016994;28;20117;-71
2021/05/11 00:08:37;;;;;;;8.52;4.75;;;;;;;17.28;53.45;100081.13;5034039;28;20029;-69
2021/05/11 00:11:03;;;;;;;12.00;4.97;;;;;;;17.29;53.96;100092.75;5016257;28;20067;-69
2021/05/11 00:13:28;;;;;;;7.93;4.72;;;;;;;16.88;54.61;100048.81;5034048;28;20065;-70
2021/05/11 00:15:53;;;;;;;9.60;4.95;;;;;;;17.07;54.74;100088.44;5016315;28;20092;-70
2021/05/11 00:18:19;;;;;;;10.95;4.50;;;;;;;17.00;54.96;100088.16;5016452;28;20040;-70
2021/05/11 00:20:45;;;;;;;8.48;4.70;;;;;;;16.99;55.43;100093.69;4999682;28;20375;-73
2021/05/11 00:23:10;;;;;;;12.15;5.35;;;;;;;16.81;55.13;100071.91;5000058;28;20386;-72
2021/05/11 00:25:36;;;;;;;9.77;5.35;;;;;;;16.82;55.94;100079.00;5000075;28;20033;-74
2021/05/11 00:28:02;;;;;;;10.85;5.18;;;;;;;16.83;56.01;100081.56;4999566;28;20501;-74
2021/05/11 00:30:27;;;;;;;9.65;5.13;;;;;;;16.84;56.11;100077.03;4999976;28;20036;-74
2021/05/11 00:32:53;;;;;;;10.55;4.78;;;;;;;16.72;56.90;100080.81;5015673;28;20409;-73
2021/05/11 00:35:19;;;;;;;9.75;4.80;;;;;;;16.65;57.19;100083.16;5015989;28;20029;-76
2021/05/11 00:37:45;;;;;;;11.40;5.15;;;;;;;16.56;56.94;100079.44;4999096;28;20052;-75
2021/05/11 00:40:12;;;;;;;9.43;5.07;;;;;;;16.29;56.83;100033.38;5033581;28;20037;-74
2021/05/11 00:42:37;;;;;;;11.40;5.35;;;;;;;16.56;57.02;100074.03;5016174;28;20064;-71
2021/05/11 00:45:05;;;;;;;12.15;4.55;;;;;;;16.64;56.95;100084.13;5033317;28;20076;-73
2021/05/11 00:47:30;;;;;;;9.07;5.00;;;;;;;16.62;57.67;100087.97;5033687;28;20040;-73
2021/05/11 00:49:56;;;;;;;11.00;4.70;;;;;;;16.46;58.14;100078.53;5015515;28;20037;-73
2021/05/11 00:52:22;;;;;;;12.23;5.32;;;;;;;16.39;58.32;100077.34;5015767;28;20454;-71
2021/05/11 00:54:48;;;;;;;11.65;5.45;;;;;;;16.40;58.10;100081.75;5015623;28;20045;-72
2021/05/11 00:57:14;;;;;;;8.45;5.85;;;;;;;16.11;57.65;100032.28;5033319;28;20033;-75
2021/05/11 00:59:40;;;;;;;11.52;6.50;;;;;;;16.47;57.83;100085.63;5015588;28;20049;-73
2021/05/11 01:02:07;;;;;;;9.50;5.22;;;;;;;16.45;57.91;100082.22;5015900;28;20106;-74
2021/05/11 01:04:34;;;;;;;11.02;5.35;;;;;;;16.43;57.94;100078.81;5015183;28;20120;-72
2021/05/11 01:07:00;;;;;;;10.30;5.70;;;;;;;16.43;58.02;100073.41;5015162;28;20056;-73
2021/05/11 01:09:26;;;;;;;8.65;5.47;;;;;;;16.33;58.51;100064.44;5033489;28;20075;-74
2021/05/11 01:11:54;;;;;;;11.05;5.70;;;;;;;16.37;58.80;100083.84;5032635;28;20378;-74
2021/05/11 01:14:21;;;;;;;10.27;5.57;;;;;;;16.20;58.76;100066.47;5015549;28;20478;-74
2021/05/11 01:16:50;;;;;;;8.30;5.38;;;;;;;16.28;58.95;100085.50;5032618;28;20033;-74
2021/05/11 01:19:27;;;;;;;8.23;4.80;;;;;;;15.91;58.60;100024.09;5033258;28;20029;-73
2021/05/11 01:22:03;;;;;;;9.85;5.43;;;;;;;16.25;58.70;100080.41;5033234;28;20065;-74
2021/05/11 01:24:32;;;;;;;10.75;5.45;;;;;;;16.22;59.29;100080.69;5033080;28;20450;-75
2021/05/11 01:29:48;;;;;;;9.20;5.57;;;;;;;16.00;59.71;100057.44;5032756;28;20095;-75
2021/05/11 01:53:51;;;;;;;13.10;8.82;;;;;;;15.78;60.90;100076.38;5032915;28;20385;-71
2021/05/11 02:10:09;;;;;;;11.57;7.97;;;;;;;15.78;60.82;100088.00;5033016;28;20040;-71
2021/05/11 02:23:05;;;;;;;10.95;7.30;;;;;;;16.01;59.22;100073.44;5020885;28;20387;-71
2021/05/11 02:25:31;;;;;;;8.48;6.57;;;;;;;15.89;59.23;100060.19;5018762;28;20029;-73
2021/05/11 02:27:57;;;;;;;11.13;6.50;;;;;;;15.89;59.49;100069.09;5003611;28;20041;-74
2021/05/11 02:30:22;;;;;;;9.95;5.97;;;;;;;15.72;59.53;100051.72;5035994;28;20033;-75
2021/05/11 02:32:48;;;;;;;13.30;5.75;;;;;;;15.82;59.58;100078.69;5035949;28;20044;-76
2021/05/11 02:35:15;;;;;;;8.35;5.55;;;;;;;15.52;59.47;100017.56;5036590;28;20116;-78
2021/05/11 02:37:42;;;;;;;12.70;7.57;;;;;;;15.76;59.35;100057.69;5036274;28;20037;-76
2021/05/11 02:40:09;;;;;;;13.55;7.10;;;;;;;15.52;59.34;100014.03;5018078;28;20370;-74
2021/05/11 02:42:36;;;;;;;9.65;6.15;;;;;;;15.67;59.97;100072.78;5018004;28;20029;-75
2021/05/11 02:45:03;;;;;;;11.27;5.78;;;;;;;15.60;59.80;100060.81;5017519;28;20089;-75
2021/05/11 02:47:29;;;;;;;8.15;5.30;;;;;;;15.75;59.60;100072.13;5002400;28;20045;-77
2021/05/11 02:49:55;;;;;;;10.68;5.22;;;;;;;15.78;59.43;100074.56;5035445;28;20116;-77
2021/05/11 02:52:20;;;;;;;8.18;4.75;;;;;;;15.78;59.33;100058.41;5018040;28;20125;-75
2021/05/11 02:54:46;;;;;;;8.82;4.85;;;;;;;15.63;59.47;100057.91;5017992;28;20083;-77
2021/05/11 02:57:12;;;;;;;9.65;5.40;;;;;;;15.56;60.32;100063.88;5035164;28;20029;-77
2021/05/11 02:59:39;;;;;;;7.88;4.68;;;;;;;15.68;59.54;100060.19;5035802;28;20033;-75
2021/05/11 03:02:05;;;;;;;8.52;5.32;;;;;;;15.70;59.37;100063.59;5017869;28;20033;-77
2021/05/11 03:04:30;;;;;;;9.98;5.57;;;;;;;15.55;59.83;100043.34;5001794;28;20401;-77
2021/05/11 03:06:58;;;;;;;10.13;4.95;;;;;;;15.74;59.27;100062.38;5035056;28;20037;-76
2021/05/11 03:09:27;;;;;;;11.98;5.90;;;;;;;15.64;59.73;100056.91;5018096;28;20029;-77
2021/05/11 03:11:54;;;;;;;7.57;5.25;;;;;;;15.48;59.49;100034.94;5017127;28;20085;-73
2021/05/11 03:14:20;;;;;;;10.02;5.50;;;;;;;15.64;59.54;100064.13;5035222;28;20046;-73
2021/05/11 03:16:47;;;;;;;11.18;5.63;;;;;;;15.30;59.74;100013.13;5035328;28;20040;-72
2021/05/11 03:19:13;;;;;;;9.88;5.53;;;;;;;15.49;59.86;100068.91;5034960;28;20044;-72
2021/05/11 03:21:38;;;;;;;9.30;5.40;;;;;;;15.39;60.16;100058.06;5017366;28;20037;-72
2021/05/11 03:24:06;;;;;;;8.82;5.60;;;;;;;15.41;60.08;100068.69;5034837;28;20064;-74
2021/05/11 03:26:31;;;;;;;12.45;5.47;;;;;;;15.55;59.61;100064.84;5016966;28;20397;-75
2021/05/11 03:28:57;;;;;;;11.07;5.82;;;;;;;15.51;59.27;100044.56;5035540;28;20036;-75
2021/05/11 03:31:22;;;;;;;9.73;5.50;;;;;;;15.73;59.06;100057.97;5021347;28;20068;-74
2021/05/11 03:33:48;;;;;;;9.57;5.60;;;;;;;15.78;58.63;100053.03;5021347;28;20544;-71
2021/05/11 03:36:13;;;;;;;9.80;5.40;;;;;;;15.73;58.76;100061.50;5002270;28;20037;-71
2021/05/11 03:38:39;;;;;;;10.20;5.50;;;;;;;15.73;59.20;100063.34;5017102;28;20477;-72
2021/05/11 03:41:05;;;;;;;8.60;5.68;;;;;;;15.75;59.21;100072.13;5016864;28;20091;-72
2021/05/11 03:43:36;;;;;;;11.93;5.80;;;;;;;15.77;59.12;100075.53;5034515;28;20040;-72
2021/05/11 03:46:07;;;;;;;10.45;6.00;;;;;;;15.76;58.83;100051.47;5034379;28;20050;-72
2021/05/11 03:48:32;;;;;;;8.60;5.55;;;;;;;15.85;58.50;100070.38;5017021;28;20376;-73
2021/05/11 03:51:05;;;;;;;9.48;5.03;;;;;;;15.84;58.33;100049.84;5016477;28;20039;-73
2021/05/11 03:53:31;;;;;;;8.70;4.80;;;;;;;15.94;57.71;100021.16;5017045;28;20030;-72
2021/05/11 03:55:56;;;;;;;7.95;4.93;;;;;;;16.56;56.48;100065.97;5016591;28;20277;-71
2021/05/11 03:58:22;;;;;;;8.63;4.50;;;;;;;17.05;54.78;100066.16;5000564;28;20033;-71
2021/05/11 04:00:47;;;;;;;9.27;4.68;;;;;;;17.83;52.62;100057.16;5016932;28;20433;-72
2021/05/11 04:03:13;;;;;;;13.85;5.15;;;;;;;18.40;51.06;100071.56;5016275;28;20124;-71
2021/05/11 04:05:38;;;;;;;10.90;4.60;;;;;;;19.14;48.81;100065.28;5000493;28;20061;-71
2021/05/11 04:08:04;;;;;;;14.55;4.93;;;;;;;19.29;47.30;100003.41;5033797;28;20140;-70
2021/05/11 04:10:41;;;;;;;9.60;4.80;;;;;;;19.65;46.86;100036.75;5034257;28;20462;-72
2021/05/11 04:13:23;;;;;;;10.48;4.70;;;;;;;19.92;46.83;100052.03;5033914;28;20512;-73
2021/05/11 04:16:17;;;;;;;9.30;4.15;;;;;;;20.53;44.13;100035.72;5034138;28;20033;-72
2021/05/11 04:18:43;;;;;;;10.20;4.55;;;;;;;21.04;43.39;100050.19;5016003;28;20040;-72
2021/05/11 04:21:09;;;;;;;10.00;4.20;;;;;;;21.48;42.18;100047.25;4999736;28;20521;-71
2021/05/11 04:23:34;;;;;;;7.30;4.70;;;;;;;21.56;42.35;100054.56;5033883;28;20040;-71
2021/05/11 04:26:00;;;;;;;9.60;3.97;;;;;;;21.14;42.40;100056.31;4999417;28;20064;-71
2021/05/11 04:28:26;;;;;;;7.65;4.15;;;;;;;21.39;42.63;100059.09;5016495;28;20072;-75
2021/05/11 04:30:51;;;;;;;9.05;4.32;;;;;;;21.21;42.65;100020.38;5033829;28;20076;-74
2021/05/11 04:33:17;;;;;;;6.25;4.05;;;;;;;21.73;42.00;100050.00;5033651;28;20045;-75
2021/05/11 04:35:42;;;;;;;9.52;4.43;;;;;;;21.74;42.45;100054.41;5016237;28;20389;-73
2021/05/11 04:38:08;;;;;;;12.82;4.30;;;;;;;21.63;41.53;100045.59;5015188;28;20107;-73
2021/05/11 04:40:33;;;;;;;8.10;4.50;;;;;;;22.23;41.24;100058.81;5033642;28;20038;-73
2021/05/11 04:42:59;;;;;;;8.38;4.28;;;;;;;22.88;39.07;100057.84;4999008;28;20041;-74
2021/05/11 04:45:26;;;;;;;10.23;4.45;;;;;;;22.87;38.76;100047.97;5033554;28;20030;-72
2021/05/11 04:47:53;;;;;;;7.82;4.60;;;;;;;23.14;37.21;100014.00;4999597;28;20071;-73
2021/05/11 04:50:24;;;;;;;10.18;4.60;;;;;;;23.49;37.28;100060.75;5015603;28;20033;-75
2021/05/11 04:52:51;;;;;;;7.95;4.60;;;;;;;23.26;36.84;100050.69;5033024;28;20385;-75
2021/05/11 04:55:18;;;;;;;13.75;5.43;;;;;;;23.53;37.29;100062.06;5033035;28;20033;-74
2021/05/11 04:57:44;;;;;;;7.93;4.63;;;;;;;23.37;37.44;100063.03;5015656;28;20091;-79
2021/05/11 05:00:12;;;;;;;7.85;4.60;;;;;;;22.63;38.67;100065.19;5015365;28;20037;-78
2021/05/11 05:02:41;;;;;;;6.95;3.80;;;;;;;23.04;37.71;100063.19;5033187;28;20041;-82
2021/05/11 05:05:07;;;;;;;6.55;4.00;;;;;;;23.00;38.13;100061.00;5015906;28;20044;-80
2021/05/11 05:07:35;;;;;;;6.70;3.58;;;;;;;23.16;37.10;100038.31;5015825;28;20041;-79
2021/05/11 05:10:01;;;;;;;8.02;3.85;;;;;;;23.33;37.22;100059.81;5033282;28;20034;-78
2021/05/11 05:12:26;;;;;;;10.23;4.28;;;;;;;23.53;36.86;100064.78;5032915;28;20060;-76
2021/05/11 05:14:52;;;;;;;9.80;4.00;;;;;;;23.70;36.24;100063.69;5033063;28;20505;-77
2021/05/11 05:17:17;;;;;;;6.82;3.80;;;;;;;24.24;35.27;100067.13;5032570;28;20030;-79
2021/05/11 05:19:42;;;;;;;10.38;3.95;;;;;;;24.74;33.95;100053.84;5015518;28;20040;-73
2021/05/11 05:22:08;;;;;;;8.32;3.97;;;;;;;24.51;34.18;100056.66;5015538;28;20091;-73
2021/05/11 05:24:39;;;;;;;7.25;3.83;;;;;;;24.78;33.92;100053.28;5032706;28;20352;-73
2021/05/11 05:29:42;;;;;;;7.75;4.00;;;;;;;24.88;33.31;100042.06;5033034;28;20037;-75
2021/05/11 05:32:08;;;;;;;6.25;3.45;;;;;;;25.18;33.25;100042.06;5033044;28;20030;-73
2021/05/11 05:34:34;;;;;;;6.70;4.05;;;;;;;25.13;33.28;100055.44;5015192;28;20042;-71
2021/05/11 05:36:59;;;;;;;11.95;4.25;;;;;;;25.82;32.53;100061.28;5015194;28;20079;-75
2021/05/11 05:42:20;;;;;;;8.88;3.88;;;;;;;25.89;32.13;100046.63;5011089;28;20058;-74
2021/05/11 05:44:45;;;;;;;8.30;4.03;;;;;;;26.38;30.89;100056.72;5032877;28;20022;-74
2021/05/11 05:47:11;;;;;;;7.93;3.90;;;;;;;26.07;31.52;100059.00;5015047;28;20426;-73
2021/05/11 05:49:45;;;;;;;10.38;3.88;;;;;;;26.04;31.36;100043.81;5015803;28;20440;-74
2021/05/11 05:52:18;;;;;;;8.55;3.40;;;;;;;26.14;31.18;100048.94;5036699;28;20091;-76
2021/05/11 05:54:47;;;;;;;;;;;;;;;26.17;31.44;100054.03;5037071;28;20037;-77
2021/05/11 05:57:14;;;;;;;6.65;3.28;;;;;;;26.21;30.21;100045.22;5019154;28;19917;-75
2021/05/11 05:59:41;;;;;;;7.65;2.63;;;;;;;26.19;29.95;100043.72;5019339;28;20112;-74
2021/05/11 06:02:11;;;;;;;5.18;3.08;;;;;;;26.62;29.63;100047.19;5019102;28;20041;-75
2021/05/11 06:04:38;;;;;;;5.25;2.70;;;;;;;27.42;28.15;100047.59;5018916;28;20037;-75
2021/05/11 06:07:04;;;;;;;6.50;2.67;;;;;;;26.93;27.93;100013.06;5036379;28;20072;-77
2021/05/11 06:09:30;;;;;;;6.70;3.20;;;;;;;27.08;28.40;100046.63;5018527;28;20061;-77
2021/05/11 06:12:00;;;;;;;7.20;3.10;;;;;;;26.80;28.35;100002.91;5006923;28;20054;-76
2021/05/11 06:14:44;;;;;;;5.95;3.22;;;;;;;27.48;27.73;100036.63;4992231;28;20042;-75
2021/05/11 06:17:18;;;;;;;8.05;2.80;;;;;;;27.33;27.22;100050.53;5015992;28;20041;-77
2021/05/11 06:19:49;;;;;;;6.70;2.80;;;;;;;27.12;27.38;100015.06;4998841;28;20366;-77
2021/05/11 06:22:15;;;;;;;8.52;3.10;;;;;;;27.73;26.84;100036.94;5016266;28;20037;-80
2021/05/11 06:24:42;;;;;;;7.80;3.08;;;;;;;27.97;27.14;100040.09;5016859;28;20037;-82
2021/05/11 06:27:10;;;;;;;7.20;2.90;;;;;;;27.66;27.37;100033.34;5016408;28;20044;-74
2021/05/11 06:29:38;;;;;;;8.27;3.10;;;;;;;27.76;26.89;100039.25;5016215;28;20118;-78
2021/05/11 06:32:08;;;;;;;7.90;2.85;;;;;;;27.93;26.96;100040.53;5020125;28;20065;-77
2021/05/11 06:34:34;;;;;;;7.53;3.20;;;;;;;28.37;26.60;100030.81;5016368;28;20037;-73
2021/05/11 06:37:00;;;;;;;6.28;3.10;;;;;;;28.12;26.82;100035.28;4998241;28;20083;-75
2021/05/11 06:39:26;;;;;;;5.88;3.08;;;;;;;28.39;26.42;100033.38;5016000;28;20049;-73
2021/05/11 06:41:54;;;;;;;7.20;2.88;;;;;;;27.80;26.80;100018.63;5008214;28;20037;-73
2021/05/11 06:54:13;;;;;;;7.57;3.00;;;;;;;27.44;28.09;100007.16;5035693;28;20459;-73
2021/05/11 06:56:41;;;;;;;7.45;2.88;;;;;;;26.91;28.86;100006.94;5035552;28;20052;-74
2021/05/11 06:59:07;;;;;;;5.97;2.90;;;;;;;26.50;29.47;100016.00;5038979;28;20038;-75
2021/05/11 07:01:32;;;;;;;7.53;2.72;;;;;;;26.10;29.61;100014.84;5046557;28;20044;-72
2021/05/11 07:03:58;;;;;;;5.75;2.90;;;;;;;25.82;30.88;100018.41;5040164;28;20034;-72
2021/05/11 07:06:23;;;;;;;8.13;2.80;;;;;;;25.37;31.42;100014.13;5020220;28;20029;-76
2021/05/11 07:08:59;;;;;;;7.32;3.42;;;;;;;25.48;31.16;100010.91;5017817;28;20496;-76
2021/05/11 07:11:31;;;;;;;6.80;3.03;;;;;;;25.47;31.73;100019.28;5034508;28;20132;-76
2021/05/11 07:13:56;;;;;;;8.68;2.92;;;;;;;25.32;31.11;100002.97;5018239;28;20042;-72
2021/05/11 07:16:22;;;;;;;6.30;2.85;;;;;;;25.21;31.80;100004.31;5035148;28;20036;-70
2021/05/11 07:18:47;;;;;;;7.55;2.85;;;;;;;25.07;32.52;100003.31;5000738;28;20068;-69
2021/05/11 07:21:13;;;;;;;6.13;2.90;;;;;;;25.02;32.41;99997.59;5016914;28;20043;-72
2021/05/11 07:23:39;;;;;;;12.32;3.00;;;;;;;25.16;32.55;100006.78;5001280;28;20092;-70
2021/05/11 07:26:26;;;;;;;8.00;3.53;;;;;;;25.11;32.51;100007.38;5000862;28;20561;-72
2021/05/11 07:31:36;;;;;;;6.93;3.20;;;;;;;25.07;32.71;99991.56;5034667;28;20041;-73
2021/05/11 07:34:03;;;;;;;5.93;2.80;;;;;;;24.77;32.84;99991.59;5016996;28;20759;-73
2021/05/11 07:36:28;;;;;;;7.20;3.10;;;;;;;24.78;32.69;99984.25;5034644;28;20034;-73
2021/05/11 07:38:54;;;;;;;7.88;2.88;;;;;;;24.71;33.34;100010.59;5016833;28;20496;-71
2021/05/11 07:41:20;;;;;;;7.88;3.00;;;;;;;24.72;32.92;99996.78;5016081;28;20033;-72
2021/05/11 07:43:50;;;;;;;6.63;2.50;;;;;;;24.53;33.45;99987.28;5016884;28;20853;-74
2021/05/11 08:01:53;;;;;;;8.55;3.15;;;;;;;24.62;33.68;99965.38;5014798;28;20084;-75
2021/05/11 08:02:03;;;;;;;4.45;2.90;;;;;;;24.73;33.69;100011.25;4970267;28;20037;-70
2021/05/11 08:10:00;;;;;;;7.28;2.63;;;;;;;24.73;34.55;100019.44;5013838;28;20038;-74
2021/05/11 08:17:30;;;;;;;7.65;2.80;;;;;;;24.71;33.63;100007.88;5013884;28;20041;-71
2021/05/11 08:28:11;;;;;;;6.45;2.95;;;;;;;25.03;32.67;100004.75;5013998;28;20037;-74
2021/05/11 08:30:37;;;;;;;5.13;2.55;;;;;;;25.05;32.80;99994.47;5013817;28;20026;-73
2021/05/11 08:33:03;;;;;;;8.35;3.03;;;;;;;25.24;32.74;100003.94;4995803;28;20111;-74
2021/05/11 08:35:29;;;;;;;6.47;2.60;;;;;;;25.07;32.68;99978.75;4996403;28;20033;-72
2021/05/11 08:37:54;;;;;;;5.22;3.05;;;;;;;25.17;32.55;100002.16;5013792;28;20034;-71
2021/05/11 08:40:20;;;;;;;6.47;3.38;;;;;;;25.17;32.74;99996.69;4996313;28;20520;-73
2021/05/11 08:42:45;;;;;;;6.85;2.72;;;;;;;25.09;33.49;99987.63;4995774;28;20056;-72
2021/05/11 08:45:13;;;;;;;7.18;3.03;;;;;;;25.03;32.84;99993.84;5013654;28;20034;-73
2021/05/11 08:47:49;;;;;;;5.05;2.90;;;;;;;25.15;32.79;100004.25;4996013;28;20483;-73
2021/05/11 08:50:36;;;;;;;9.07;3.33;;;;;;;25.14;32.69;99986.19;4997515;28;20041;-73
2021/05/11 09:06:44;;;;;;;7.68;2.75;;;;;;;25.65;31.81;99986.91;4998662;28;20119;-74
2021/05/11 09:15:44;;;;;;;6.72;3.10;;;;;;;25.69;30.20;99982.75;4998632;28;20052;-72
2021/05/11 09:26:12;;;;;;;7.65;2.83;;;;;;;25.90;30.01;99981.91;5012591;28;20076;-71
2021/05/11 09:31:09;;;;;;;6.20;2.70;;;;;;;25.86;29.71;99975.13;4995576;28;20045;-74
2021/05/11 09:34:04;;;;;;;7.10;2.90;;;;;;;25.84;30.10;99972.59;4995347;28;20062;-74
2021/05/11 10:13:50;;;;;;;6.35;2.17;;;;;;;26.89;25.79;99946.09;5022916;28;20073;-70
2021/05/11 10:48:35;;;;;;;6.10;2.58;;;;;;;27.10;25.46;99899.44;5036300;28;20131;-71
2021/05/11 10:51:05;;;;;;;4.65;2.50;;;;;;;27.17;25.33;99904.94;5035415;28;20044;-74
2021/05/11 10:53:46;;;;;;;4.70;2.50;;;;;;;27.33;25.04;99899.06;5035660;28;20040;-73
2021/05/11 11:01:59;;;;;;;5.93;2.67;;;;;;;27.38;25.27;99883.69;5034633;28;20053;-74
2021/05/11 11:04:31;;;;;;;5.15;2.38;;;;;;;27.35;24.95;99881.38;5034752;28;20128;-75
2021/05/11 11:06:57;;;;;;;5.03;2.50;;;;;;;27.38;24.83;99871.88;5035219;28;20072;-78
2021/05/11 11:09:24;;;;;;;4.70;2.30;;;;;;;27.28;24.38;99860.50;5017435;28;20469;-72
2021/05/11 11:11:51;;;;;;;4.93;2.40;;;;;;;26.99;25.34;99804.25;5034471;28;20118;-72
2021/05/11 11:14:17;;;;;;;6.75;2.47;;;;;;;27.44;25.34;99860.09;5035320;28;20389;-76
2021/05/11 11:16:43;;;;;;;5.28;2.75;;;;;;;27.41;25.64;99843.22;5034789;28;20037;-73
2021/05/11 11:19:10;;;;;;;8.07;2.50;;;;;;;27.60;25.34;99856.06;5017568;28;20040;-72
2021/05/11 11:24:44;;;;;;;5.38;2.47;;;;;;;27.63;26.01;99850.19;5018903;28;20378;-72
2021/05/11 11:27:10;;;;;;;6.50;2.50;;;;;;;27.62;26.56;99846.59;5031039;28;20045;-71
2021/05/11 11:29:35;;;;;;;5.20;2.63;;;;;;;27.58;25.60;99839.00;5017361;28;20409;-73
2021/05/11 11:32:01;;;;;;;7.00;2.67;;;;;;;27.54;25.06;99815.84;5017097;28;20049;-71
2021/05/11 11:34:32;;;;;;;5.95;2.63;;;;;;;27.76;25.06;99838.38;5034702;28;20034;-74
2021/05/11 11:37:00;;;;;;;6.22;2.22;;;;;;;27.71;24.51;99816.28;5034998;28;20056;-76
2021/05/11 11:39:34;;;;;;;6.90;2.40;;;;;;;27.47;24.99;99817.75;5016956;28;20032;-75
2021/05/11 11:42:05;;;;;;;5.45;2.45;;;;;;;27.55;24.78;99820.25;5034137;28;20440;-71
2021/05/11 11:44:35;;;;;;;10.18;2.70;;;;;;;27.57;24.90;99804.44;5034675;28;20029;-72
2021/05/11 11:47:06;;;;;;;6.32;2.30;;;;;;;27.71;24.60;99806.16;5034347;28;20466;-70
2021/05/11 11:49:38;;;;;;;7.85;2.33;;;;;;;27.77;24.58;99818.97;5034609;28;20041;-75
2021/05/11 11:59:53;;;;;;;5.35;2.42;;;;;;;27.71;24.56;99762.31;5016871;28;20029;-72
2021/05/11 12:02:18;;;;;;;6.25;2.90;;;;;;;27.89;24.68;99787.13;5016540;28;20509;-75
2021/05/11 12:04:44;;;;;;;4.88;2.25;;;;;;;28.04;24.01;99778.63;5016338;28;20101;-70
2021/05/11 12:07:09;;;;;;;6.10;2.20;;;;;;;27.99;24.04;99763.88;5016608;28;20042;-74
2021/05/11 12:09:35;;;;;;;6.35;2.25;;;;;;;28.02;24.63;99768.94;5033966;28;20124;-73
2021/05/11 12:12:01;;;;;;;4.25;2.30;;;;;;;27.95;23.77;99753.38;5015139;28;20049;-74
2021/05/11 12:14:27;;;;;;;5.95;2.47;;;;;;;27.84;23.93;99736.75;5034118;28;20042;-71
2021/05/11 12:16:53;;;;;;;5.78;2.38;;;;;;;27.82;24.33;99758.91;5033747;28;20108;-74
2021/05/11 12:19:23;;;;;;;5.30;2.63;;;;;;;27.78;23.72;99743.09;5016277;28;20394;-76
2021/05/11 12:21:50;;;;;;;5.90;2.65;;;;;;;27.85;24.01;99750.25;5033607;28;20041;-75
2021/05/11 12:24:15;;;;;;;5.88;2.38;;;;;;;27.91;23.51;99745.81;5033810;28;20025;-72
2021/05/11 12:26:44;;;;;;;4.85;2.30;;;;;;;27.93;23.54;99749.16;5016039;28;20041;-70
2021/05/11 12:29:15;;;;;;;5.63;2.95;;;;;;;28.21;24.37;99751.56;5033832;28;20069;-72
2021/05/11 12:31:43;;;;;;;6.00;2.55;;;;;;;28.15;24.44;99736.81;5015933;28;20033;-73
2021/05/11 12:34:13;;;;;;;4.32;2.42;;;;;;;28.10;24.52;99722.09;5033624;28;20371;-73
2021/05/11 12:36:52;;;;;;;4.38;2.40;;;;;;;28.06;23.84;99723.59;5015876;28;20029;-76
2021/05/11 12:41:52;;;;;;;5.03;2.70;;;;;;;28.00;23.45;99717.09;5033155;28;20037;-74
2021/05/11 12:44:28;;;;;;;5.82;2.70;;;;;;;28.05;23.89;99720.00;5015775;28;20030;-74
2021/05/11 12:47:00;;;;;;;7.68;2.10;;;;;;;28.01;23.51;99696.00;5033353;28;20433;-72
2021/05/11 12:49:27;;;;;;;5.60;2.30;;;;;;;27.78;23.45;99683.66;5015901;28;20037;-75
2021/05/11 12:51:55;;;;;;;4.30;2.30;;;;;;;28.05;24.39;99713.69;5015764;28;20036;-73
2021/05/11 12:54:23;;;;;;;6.78;2.47;;;;;;;28.16;23.46;99704.75;5033203;28;20040;-70
2021/05/11 12:59:32;;;;;;;7.07;2.60;;;;;;;28.18;22.45;99702.63;5014766;28;20120;-70
2021/05/11 13:26:22;;;;;;;6.40;2.53;;;;;;;28.33;22.55;99667.56;5090465;28;20063;-73
2021/05/11 13:29:01;;;;;;;4.00;2.50;;;;;;;28.36;22.39;99682.72;5089045;28;20453;-79
2021/05/11 13:31:35;;;;;;;6.03;2.50;;;;;;;28.26;22.15;99668.63;5089892;28;20554;-75
2021/05/11 13:34:11;;;;;;;5.78;2.55;;;;;;;27.99;22.78;99626.84;5089005;28;20419;-73
2021/05/11 13:36:39;;;;;;;8.50;2.53;;;;;;;28.24;23.05;99674.34;5090119;28;20032;-74
2021/05/11 13:39:05;;;;;;;3.92;2.28;;;;;;;28.23;22.73;99650.72;5088875;28;20726;-75
2021/05/11 13:41:31;;;;;;;7.70;2.72;;;;;;;28.31;23.01;99642.28;5089235;28;20477;-72
2021/05/11 13:43:57;;;;;;;6.43;2.20;;;;;;;28.42;21.24;99654.44;5088782;28;20109;-72
2021/05/11 13:46:23;;;;;;;4.38;2.40;;;;;;;28.39;21.94;99644.75;5090075;28;20032;-75
2021/05/11 13:48:48;;;;;;;6.05;2.70;;;;;;;28.39;22.18;99642.00;5088489;28;20028;-72
2021/05/11 13:51:18;;;;;;;7.45;2.50;;;;;;;28.37;22.38;99641.38;5089892;28;20388;-74
2021/05/11 13:53:48;;;;;;;4.50;2.42;;;;;;;28.38;22.99;99632.09;5089853;28;20036;-75
2021/05/11 13:57:00;;;;;;;4.22;2.20;;;;;;;28.46;22.46;99634.53;5088402;28;20068;-74
2021/05/11 14:02:04;;;;;;;5.97;2.08;;;;;;;28.49;22.08;99634.13;5089345;28;20403;-74
2021/05/11 14:04:30;;;;;;;5.47;2.70;;;;;;;28.13;22.72;99584.59;5088145;28;20469;-73
2021/05/11 14:06:55;;;;;;;6.03;2.72;;;;;;;28.32;23.13;99632.16;5089340;28;20100;-72
2021/05/11 14:09:21;;;;;;;4.53;2.58;;;;;;;28.35;23.39;99618.81;5089451;28;20029;-72
2021/05/11 14:11:47;;;;;;;6.60;2.85;;;;;;;28.41;23.77;99598.72;5088218;28;20028;-73
2021/05/11 14:14:14;;;;;;;8.85;2.83;;;;;;;28.38;23.87;99604.69;5089449;28;20054;-74
2021/05/11 14:16:41;;;;;;;7.60;2.30;;;;;;;28.12;23.66;99571.94;5087343;28;20115;-76
2021/05/11 14:19:07;;;;;;;5.25;2.60;;;;;;;28.29;24.22;99595.03;5087783;28;20537;-74
2021/05/11 14:21:33;;;;;;;5.80;2.47;;;;;;;28.22;23.47;99600.53;5088639;28;20108;-74
2021/05/11 14:23:59;;;;;;;4.95;2.22;;;;;;;28.19;23.35;99608.38;5088066;28;20073;-74
2021/05/11 14:26:25;;;;;;;6.82;2.53;;;;;;;28.32;23.68;99597.34;5087821;28;20247;-74
2021/05/11 14:28:50;;;;;;;4.35;2.38;;;;;;;28.29;23.77;99599.69;5087805;28;20036;-75
2021/05/11 14:31:16;;;;;;;5.88;2.70;;;;;;;28.22;23.19;99591.47;5087551;28;20114;-75
2021/05/11 14:33:42;;;;;;;7.53;2.53;;;;;;;28.23;24.15;99584.94;5081366;28;20400;-73
2021/05/11 14:36:08;;;;;;;5.05;2.67;;;;;;;28.16;24.51;99570.41;5075357;28;20060;-73
2021/05/11 14:38:37;;;;;;;5.85;2.30;;;;;;;28.15;23.82;99582.44;5075499;28;20032;-73
2021/05/11 14:41:04;;;;;;;6.45;2.58;;;;;;;28.09;24.27;99566.91;5074892;28;20032;-75
2021/05/11 14:43:30;;;;;;;6.22;2.33;;;;;;;28.13;24.32;99596.38;5075497;28;20114;-75
2021/05/11 14:46:07;;;;;;;6.30;2.45;;;;;;;28.13;24.31;99579.09;5057166;28;20032;-75
2021/05/11 14:48:33;;;;;;;6.22;2.60;;;;;;;28.05;24.62;99565.66;5074021;28;20028;-74
2021/05/11 14:51:00;;;;;;;5.40;2.15;;;;;;;28.10;23.73;99577.66;5075038;28;20420;-75
2021/05/11 14:53:26;;;;;;;7.30;2.70;;;;;;;28.15;23.74;99582.44;5075366;28;20119;-75
2021/05/11 14:55:52;;;;;;;8.73;2.58;;;;;;;28.14;23.80;99581.63;5073996;28;20433;-71
2021/05/11 14:58:18;;;;;;;5.53;2.35;;;;;;;28.07;24.63;99588.19;5075002;28;20037;-72
2021/05/11 15:00:43;;;;;;;7.88;2.55;;;;;;;28.09;24.78;99572.41;5074893;28;20081;-72
2021/05/11 15:03:13;;;;;;;6.78;2.42;;;;;;;27.91;24.56;99552.06;5073680;28;20054;-72
2021/05/11 15:05:39;;;;;;;7.00;2.60;;;;;;;27.96;24.55;99573.31;5073784;28;20471;-75
2021/05/11 15:08:05;;;;;;;7.05;2.42;;;;;;;28.02;24.58;99577.06;5074759;28;20128;-73
2021/05/11 15:10:31;;;;;;;4.03;2.10;;;;;;;28.06;23.91;99567.34;5074799;28;20036;-72
2021/05/11 15:12:57;;;;;;;5.68;2.20;;;;;;;27.90;24.27;99558.59;5074313;28;20044;-75
2021/05/11 15:15:22;;;;;;;4.85;2.42;;;;;;;28.03;24.25;99573.28;5073449;28;20032;-71
2021/05/11 15:20:15;;;;;;;5.22;2.30;;;;;;;28.00;24.28;99565.50;5073355;28;20046;-72
2021/05/11 15:22:41;;;;;;;6.20;2.33;;;;;;;27.70;24.67;99532.38;5072583;28;20053;-73
2021/05/11 15:25:08;;;;;;;4.88;2.30;;;;;;;27.92;24.77;99559.22;5053393;28;20037;-75
2021/05/11 15:27:35;;;;;;;4.63;2.13;;;;;;;27.89;24.46;99556.06;5054891;28;20075;-72
2021/05/11 15:30:02;;;;;;;7.63;2.28;;;;;;;27.66;24.34;99513.66;5054875;28;20044;-69
2021/05/11 15:32:41;;;;;;;6.68;2.30;;;;;;;27.89;24.96;99545.09;5053809;28;20095;-70
2021/05/11 15:35:09;;;;;;;5.05;2.08;;;;;;;27.74;24.87;99537.22;5054554;28;20533;-73
2021/05/11 15:37:35;;;;;;;7.18;2.47;;;;;;;27.81;24.99;99537.19;5054588;28;20477;-70
2021/05/11 15:40:05;;;;;;;5.70;2.50;;;;;;;27.81;25.17;99545.41;5054362;28;20108;-73